createdAt,value
2018-08-14T00:00:23.752Z,17.30
2018-08-14T00:02:27.182Z,17.30
2018-08-14T00:04:30.730Z,17.40
2018-08-14T00:06:33.915Z,17.30
2018-08-14T00:08:37.444Z,17.40
2018-08-14T00:10:40.612Z,17.40
2018-08-14T00:12:44.143Z,17.40
2018-08-14T00:14:47.999Z,17.40
2018-08-14T00:16:51.199Z,17.40
2018-08-14T00:18:54.433Z,17.40
2018-08-14T00:20:57.956Z,17.40
2018-08-14T00:23:01.494Z,17.40
2018-08-14T00:25:05.187Z,17.50
2018-08-14T00:27:08.421Z,17.40
2018-08-14T00:29:11.923Z,17.40
2018-08-14T00:31:15.128Z,17.50
2018-08-14T00:33:18.392Z,17.50
2018-08-14T00:35:21.579Z,17.50
2018-08-14T00:37:25.671Z,17.50
2018-08-14T00:39:29.028Z,17.50
2018-08-14T00:41:32.236Z,17.50
2018-08-14T00:43:35.772Z,17.50
2018-08-14T00:45:39.045Z,17.50
2018-08-14T00:47:42.418Z,17.40
2018-08-14T00:49:45.624Z,17.40
2018-08-14T00:51:48.857Z,17.40
2018-08-14T00:53:52.068Z,17.40
2018-08-14T00:55:55.580Z,17.40
2018-08-14T00:57:58.793Z,17.30
2018-08-14T01:00:02.029Z,17.30
2018-08-14T01:02:06.160Z,17.30
2018-08-14T01:04:10.053Z,17.30
2018-08-14T01:06:13.442Z,17.30
2018-08-14T01:08:16.640Z,17.30
2018-08-14T01:10:19.846Z,17.30
2018-08-14T01:12:23.051Z,17.30
2018-08-14T01:14:26.892Z,17.40
2018-08-14T01:16:30.392Z,17.40
2018-08-14T01:18:33.984Z,17.30
2018-08-14T01:20:41.446Z,17.30
2018-08-14T01:22:46.133Z,17.40
2018-08-14T01:24:49.676Z,17.40
2018-08-14T01:26:53.216Z,17.40
2018-08-14T01:28:56.743Z,17.40
2018-08-14T01:31:00.059Z,17.30
2018-08-14T01:33:03.432Z,17.30
2018-08-14T01:35:07.709Z,17.30
2018-08-14T01:37:11.156Z,17.30
2018-08-14T01:39:14.472Z,17.40
2018-08-14T01:41:18.010Z,17.40
2018-08-14T01:43:21.652Z,17.30
2018-08-14T01:45:24.894Z,17.40
2018-08-14T01:47:28.100Z,17.30
2018-08-14T01:49:31.796Z,17.30
2018-08-14T01:51:35.113Z,17.40
2018-08-14T01:53:38.643Z,17.40
2018-08-14T01:55:42.212Z,17.40
2018-08-14T01:57:45.798Z,17.30
2018-08-14T01:59:49.204Z,17.40
2018-08-14T02:01:53.095Z,17.40
2018-08-14T02:03:56.832Z,17.40
2018-08-14T02:06:00.408Z,17.30
2018-08-14T02:08:03.591Z,17.40
2018-08-14T02:10:09.868Z,17.40
2018-08-14T02:12:13.501Z,17.40
2018-08-14T02:14:16.700Z,17.40
2018-08-14T02:16:20.231Z,17.40
2018-08-14T02:18:23.436Z,17.30
2018-08-14T02:20:27.492Z,17.30
2018-08-14T02:22:30.674Z,17.40
2018-08-14T02:24:33.889Z,17.40
2018-08-14T02:26:37.083Z,17.30
2018-08-14T02:28:40.620Z,17.40
2018-08-14T02:30:44.200Z,17.30
2018-08-14T02:32:47.795Z,17.30
2018-08-14T02:34:51.327Z,17.30
2018-08-14T02:36:54.861Z,17.30
2018-08-14T02:38:58.372Z,17.30
2018-08-14T02:41:01.552Z,17.30
2018-08-14T02:43:04.780Z,17.30
2018-08-14T02:45:09.075Z,17.30
2018-08-14T02:47:12.276Z,17.30
2018-08-14T02:49:16.136Z,17.30
2018-08-14T02:51:19.981Z,17.30
2018-08-14T02:53:23.189Z,17.30
2018-08-14T02:55:26.380Z,17.30
2018-08-14T02:57:30.250Z,17.30
2018-08-14T02:59:33.440Z,17.30
2018-08-14T03:01:36.644Z,17.30
2018-08-14T03:03:40.393Z,17.30
2018-08-14T03:05:43.584Z,17.20
2018-08-14T03:07:47.454Z,17.30
2018-08-14T03:09:50.824Z,17.30
2018-08-14T03:11:54.337Z,17.30
2018-08-14T03:13:57.880Z,17.20
2018-08-14T03:16:01.419Z,17.20
2018-08-14T03:18:04.611Z,17.30
2018-08-14T03:20:07.805Z,17.20
2018-08-14T03:22:11.321Z,17.20
2018-08-14T03:24:14.494Z,17.30
2018-08-14T03:26:17.703Z,17.30
2018-08-14T03:28:21.240Z,17.30
2018-08-14T03:30:24.481Z,17.20
2018-08-14T03:32:27.888Z,17.20
2018-08-14T03:34:31.502Z,17.30
2018-08-14T03:36:34.793Z,17.30
2018-08-14T03:38:37.963Z,17.30
2018-08-14T03:40:41.177Z,17.30
2018-08-14T03:42:45.092Z,17.30
2018-08-14T03:44:48.635Z,17.20
2018-08-14T03:46:52.154Z,17.20
2018-08-14T03:48:55.641Z,17.30
2018-08-14T03:50:59.424Z,17.20
2018-08-14T03:53:02.990Z,17.20
2018-08-14T03:55:07.293Z,17.20
2018-08-14T03:57:10.996Z,17.30
2018-08-14T03:59:14.180Z,17.30
2018-08-14T04:01:17.424Z,17.30
2018-08-14T04:03:21.052Z,17.20
2018-08-14T04:05:24.897Z,17.20
2018-08-14T04:07:28.748Z,17.30
2018-08-14T04:09:32.300Z,17.20
2018-08-14T04:11:35.876Z,17.20
2018-08-14T04:13:39.324Z,17.30
2018-08-14T04:15:42.528Z,17.20
2018-08-14T04:17:46.028Z,17.20
2018-08-14T04:19:49.207Z,17.20
2018-08-14T04:21:53.104Z,17.20
2018-08-14T04:23:56.292Z,17.30
2018-08-14T04:25:59.491Z,17.30
2018-08-14T04:28:03.032Z,17.30
2018-08-14T04:30:08.994Z,17.30
2018-08-14T04:32:12.564Z,17.30
2018-08-14T04:34:15.744Z,17.30
2018-08-14T04:36:18.920Z,17.30
2018-08-14T04:38:22.123Z,17.30
2018-08-14T04:40:25.328Z,17.40
2018-08-14T04:42:28.848Z,17.30
2018-08-14T04:44:32.431Z,17.40
2018-08-14T04:46:35.728Z,17.40
2018-08-14T04:48:39.583Z,17.40
2018-08-14T04:50:42.820Z,17.30
2018-08-14T04:52:46.220Z,17.30
2018-08-14T04:54:49.408Z,17.40
2018-08-14T04:56:52.588Z,17.40
2018-08-14T04:58:56.677Z,17.40
2018-08-14T05:00:59.882Z,17.40
2018-08-14T05:03:03.075Z,17.40
2018-08-14T05:05:08.076Z,17.40
2018-08-14T05:07:11.748Z,17.40
2018-08-14T05:09:14.998Z,17.40
2018-08-14T05:11:19.023Z,17.40
2018-08-14T05:13:22.208Z,17.50
2018-08-14T05:15:25.381Z,17.40
2018-08-14T05:17:29.340Z,17.40
2018-08-14T05:19:32.840Z,17.40
2018-08-14T05:21:36.406Z,17.40
2018-08-14T05:23:39.588Z,17.40
2018-08-14T05:25:43.190Z,17.50
2018-08-14T05:27:46.652Z,17.50
2018-08-14T05:29:50.236Z,17.50
2018-08-14T05:31:53.837Z,17.60
2018-08-14T05:33:57.040Z,17.60
2018-08-14T05:36:00.544Z,17.70
2018-08-14T05:38:03.780Z,17.60
2018-08-14T05:40:07.669Z,17.70
2018-08-14T05:42:10.852Z,17.60
2018-08-14T05:44:22.313Z,17.60
2018-08-14T05:46:25.547Z,17.60
2018-08-14T05:48:29.075Z,17.60
2018-08-14T05:50:32.692Z,17.60
2018-08-14T05:52:35.940Z,17.60
2018-08-14T05:54:39.214Z,17.60
2018-08-14T05:56:44.264Z,17.60
2018-08-14T05:58:47.469Z,17.60
2018-08-14T06:00:51.425Z,17.70
2018-08-14T06:02:54.984Z,17.70
2018-08-14T06:04:58.156Z,17.70
2018-08-14T06:07:01.400Z,17.70
2018-08-14T06:09:07.048Z,17.70
2018-08-14T06:11:10.248Z,17.70
2018-08-14T06:13:13.812Z,17.80
2018-08-14T06:15:17.140Z,17.80
2018-08-14T06:17:20.328Z,17.80
2018-08-14T06:19:23.904Z,17.80
2018-08-14T06:21:27.463Z,17.80
2018-08-14T06:23:31.004Z,17.80
2018-08-14T06:25:34.597Z,17.80
2018-08-14T06:27:37.988Z,17.80
2018-08-14T06:29:41.573Z,17.70
2018-08-14T06:31:48.400Z,17.80
2018-08-14T06:33:51.615Z,17.80
2018-08-14T06:35:55.322Z,17.80
2018-08-14T06:37:59.064Z,17.80
2018-08-14T06:40:02.642Z,17.80
2018-08-14T06:42:06.024Z,17.80
2018-08-14T06:44:09.592Z,17.80
2018-08-14T06:46:13.165Z,17.80
2018-08-14T06:48:16.378Z,17.80
2018-08-14T06:50:20.848Z,17.70
2018-08-14T06:52:24.588Z,17.80
2018-08-14T06:54:27.869Z,17.80
2018-08-14T06:56:31.312Z,17.70
2018-08-14T06:58:34.891Z,17.70
2018-08-14T07:00:38.453Z,17.70
2018-08-14T07:02:41.660Z,17.70
2018-08-14T07:04:45.614Z,17.80
2018-08-14T07:06:49.291Z,17.80
2018-08-14T07:08:53.316Z,17.90
2018-08-14T07:10:56.860Z,18.00
2018-08-14T07:13:00.090Z,18.10
2018-08-14T07:15:03.595Z,18.20
2018-08-14T07:17:07.142Z,18.20
2018-08-14T07:19:10.892Z,18.30
2018-08-14T07:21:14.112Z,18.30
2018-08-14T07:23:17.580Z,18.30
2018-08-14T07:25:21.695Z,18.30
2018-08-14T07:27:25.237Z,18.50
2018-08-14T07:29:28.512Z,18.60
2018-08-14T07:31:31.698Z,18.60
2018-08-14T07:33:35.651Z,18.70
2018-08-14T07:35:38.888Z,18.60
2018-08-14T07:37:42.639Z,18.60
2018-08-14T07:39:45.824Z,18.60
2018-08-14T07:41:49.015Z,18.70
2018-08-14T07:43:52.924Z,18.70
2018-08-14T07:45:56.131Z,18.70
2018-08-14T07:48:00.187Z,18.60
2018-08-14T07:50:04.265Z,18.60
2018-08-14T07:52:07.732Z,18.60
2018-08-14T07:54:11.620Z,18.60
2018-08-14T07:56:15.152Z,18.50
2018-08-14T07:58:18.509Z,18.50
2018-08-14T08:00:22.448Z,18.50
2018-08-14T08:02:25.665Z,18.50
2018-08-14T08:04:29.172Z,18.50
2018-08-14T08:06:32.750Z,18.60
2018-08-14T08:08:35.969Z,18.50
2018-08-14T08:10:39.162Z,18.60
2018-08-14T08:12:42.556Z,18.80
2018-08-14T08:14:46.096Z,18.90
2018-08-14T08:16:49.392Z,18.90
2018-08-14T08:18:53.131Z,18.80
2018-08-14T08:20:56.326Z,19.00
2018-08-14T08:22:59.938Z,19.00
2018-08-14T08:25:04.306Z,19.00
2018-08-14T08:27:07.816Z,18.90
2018-08-14T08:29:11.578Z,18.80
2018-08-14T08:31:14.788Z,18.80
2018-08-14T08:33:18.320Z,18.70
2018-08-14T08:35:21.504Z,18.70
2018-08-14T08:37:25.009Z,18.70
2018-08-14T08:39:28.971Z,18.70
2018-08-14T08:41:32.312Z,18.70
2018-08-14T08:43:35.568Z,18.80
2018-08-14T08:45:39.086Z,18.90
2018-08-14T08:47:42.300Z,18.90
2018-08-14T08:49:46.205Z,19.00
2018-08-14T08:51:49.840Z,19.10
2018-08-14T08:53:53.434Z,19.00
2018-08-14T08:55:56.651Z,19.10
2018-08-14T08:57:59.884Z,19.20
2018-08-14T09:00:03.232Z,19.40
2018-08-14T09:02:06.621Z,19.40
2018-08-14T09:04:10.134Z,19.40
2018-08-14T09:06:13.317Z,19.60
2018-08-14T09:08:17.145Z,19.60
2018-08-14T09:10:20.396Z,19.50
2018-08-14T09:12:23.935Z,19.50
2018-08-14T09:14:27.163Z,19.50
2018-08-14T09:16:30.376Z,19.60
2018-08-14T09:18:33.953Z,19.70
2018-08-14T09:20:37.350Z,19.70
2018-08-14T09:22:40.545Z,19.80
2018-08-14T09:24:43.766Z,19.90
2018-08-14T09:26:48.093Z,20.00
2018-08-14T09:28:51.835Z,20.00
2018-08-14T09:30:55.073Z,20.10
2018-08-14T09:32:58.364Z,20.10
2018-08-14T09:35:01.544Z,20.30
2018-08-14T09:37:04.812Z,20.30
2018-08-14T09:39:11.274Z,20.40
2018-08-14T09:41:14.476Z,20.40
2018-08-14T09:43:17.776Z,20.40
2018-08-14T09:45:21.336Z,20.30
2018-08-14T09:47:24.623Z,20.00
2018-08-14T09:49:28.085Z,20.00
2018-08-14T09:51:31.897Z,20.00
2018-08-14T09:53:35.193Z,20.00
2018-08-14T09:55:38.544Z,20.20
2018-08-14T09:57:41.971Z,20.30
2018-08-14T09:59:45.153Z,20.40
2018-08-14T10:01:53.830Z,20.40
2018-08-14T10:03:59.079Z,20.50
2018-08-14T10:06:07.800Z,20.50
2018-08-14T10:08:14.146Z,20.50
2018-08-14T10:10:17.680Z,20.60
2018-08-14T10:12:21.220Z,20.60
2018-08-14T10:14:29.849Z,20.70
2018-08-14T10:16:33.052Z,20.70
2018-08-14T10:18:36.967Z,20.80
2018-08-14T10:20:40.416Z,21.10
2018-08-14T10:22:43.808Z,21.30
2018-08-14T10:24:47.340Z,21.60
2018-08-14T10:26:50.549Z,21.40
2018-08-14T10:28:53.998Z,21.40
2018-08-14T10:30:57.708Z,21.50
2018-08-14T10:33:00.889Z,21.60
2018-08-14T10:35:04.861Z,21.70
2018-08-14T10:37:08.044Z,21.30
2018-08-14T10:39:11.480Z,21.30
2018-08-14T10:41:14.670Z,21.30
2018-08-14T10:43:17.864Z,21.40
2018-08-14T10:45:21.089Z,21.80
2018-08-14T10:47:24.623Z,21.90
2018-08-14T10:49:28.205Z,21.90
2018-08-14T10:51:31.395Z,21.70
2018-08-14T10:53:34.583Z,21.50
2018-08-14T10:55:38.178Z,21.30
2018-08-14T10:57:41.715Z,21.20
2018-08-14T10:59:45.245Z,21.20
2018-08-14T11:01:48.408Z,21.10
2018-08-14T11:03:51.599Z,21.00
2018-08-14T11:05:54.771Z,21.00
2018-08-14T11:07:58.276Z,20.50
2018-08-14T11:10:01.465Z,20.20
2018-08-14T11:12:10.097Z,20.00
2018-08-14T11:14:16.009Z,19.50
2018-08-14T11:16:19.699Z,18.50
2018-08-14T11:18:23.487Z,17.70
2018-08-14T11:20:27.335Z,17.70
2018-08-14T11:22:30.777Z,17.70
2018-08-14T11:24:34.514Z,17.70
2018-08-14T11:26:37.880Z,17.80
2018-08-14T11:28:41.110Z,17.80
2018-08-14T11:30:44.288Z,17.80
2018-08-14T11:32:47.508Z,18.00
2018-08-14T11:34:50.904Z,17.90
2018-08-14T11:36:54.151Z,18.00
2018-08-14T11:38:57.385Z,18.30
2018-08-14T11:41:01.052Z,18.40
2018-08-14T11:43:04.598Z,18.40
2018-08-14T11:45:17.163Z,18.50
2018-08-14T11:47:21.100Z,18.60
2018-08-14T11:49:24.304Z,18.80
2018-08-14T11:51:27.471Z,19.40
2018-08-14T11:53:31.333Z,20.10
2018-08-14T11:55:34.871Z,20.20
2018-08-14T11:57:38.776Z,20.30
2018-08-14T11:59:42.455Z,20.70
2018-08-14T12:01:46.307Z,21.20
2018-08-14T12:03:49.524Z,21.50
2018-08-14T12:05:53.104Z,21.80
2018-08-14T12:07:56.300Z,21.90
2018-08-14T12:09:59.498Z,21.50
2018-08-14T12:12:02.660Z,21.70
2018-08-14T12:14:06.304Z,21.80
2018-08-14T12:16:10.346Z,21.90
2018-08-14T12:18:13.548Z,22.00
2018-08-14T12:20:19.576Z,21.60
2018-08-14T12:22:23.196Z,21.60
2018-08-14T12:24:26.576Z,21.90
2018-08-14T12:26:29.783Z,22.10
2018-08-14T12:28:32.940Z,22.20
2018-08-14T12:30:36.145Z,22.00
2018-08-14T12:32:39.735Z,21.60
2018-08-14T12:34:42.892Z,21.30
2018-08-14T12:36:46.420Z,21.30
2018-08-14T12:38:50.335Z,21.10
2018-08-14T12:40:53.924Z,21.10
2018-08-14T12:42:57.132Z,21.20
2018-08-14T12:45:00.677Z,21.60
2018-08-14T12:47:03.957Z,21.80
2018-08-14T12:49:07.728Z,21.50
2018-08-14T12:51:11.235Z,21.20
2018-08-14T12:53:14.571Z,21.00
2018-08-14T12:55:18.531Z,21.00
2018-08-14T12:57:22.020Z,21.40
2018-08-14T12:59:25.468Z,21.40
2018-08-14T13:01:29.055Z,21.60
2018-08-14T13:03:32.400Z,22.00
2018-08-14T13:05:35.579Z,22.70
2018-08-14T13:07:38.800Z,23.00
2018-08-14T13:09:42.068Z,22.90
2018-08-14T13:11:45.417Z,23.40
2018-08-14T13:13:48.927Z,23.80
2018-08-14T13:15:52.155Z,24.60
2018-08-14T13:18:04.103Z,24.90
2018-08-14T13:20:09.256Z,25.10
2018-08-14T13:22:12.764Z,25.20
2018-08-14T13:24:15.956Z,25.10
2018-08-14T13:26:19.868Z,24.70
2018-08-14T13:28:23.391Z,24.30
2018-08-14T13:30:27.293Z,23.80
2018-08-14T13:32:30.540Z,23.50
2018-08-14T13:34:33.836Z,23.40
2018-08-14T13:36:37.458Z,23.90
2018-08-14T13:38:41.571Z,24.70
2018-08-14T13:40:45.109Z,24.40
2018-08-14T13:42:48.632Z,24.10
2018-08-14T13:44:51.892Z,23.40
2018-08-14T13:46:55.767Z,23.30
2018-08-14T13:48:59.276Z,22.90
2018-08-14T13:51:02.452Z,22.60
2018-08-14T13:53:05.642Z,22.40
2018-08-14T13:55:10.937Z,23.00
2018-08-14T13:57:14.159Z,23.90
2018-08-14T13:59:17.740Z,24.60
2018-08-14T14:01:21.431Z,24.90
2018-08-14T14:03:25.068Z,24.50
2018-08-14T14:05:28.297Z,24.80
2018-08-14T14:07:31.872Z,25.00
2018-08-14T14:09:35.409Z,25.40
2018-08-14T14:11:39.033Z,25.20
2018-08-14T14:13:42.920Z,24.70
2018-08-14T14:15:46.420Z,24.60
2018-08-14T14:17:50.821Z,24.60
2018-08-14T14:19:54.317Z,24.50
2018-08-14T14:21:57.491Z,24.00
2018-08-14T14:24:01.032Z,23.70
2018-08-14T14:26:04.223Z,24.00
2018-08-14T14:28:07.396Z,24.00
2018-08-14T14:30:13.078Z,23.80
2018-08-14T14:32:16.343Z,24.50
2018-08-14T14:34:19.738Z,24.50
2018-08-14T14:36:23.306Z,24.90
2018-08-14T14:38:26.801Z,24.70
2018-08-14T14:40:30.745Z,24.20
2018-08-14T14:42:33.973Z,24.30
2018-08-14T14:44:37.505Z,24.60
2018-08-14T14:46:41.048Z,24.50
2018-08-14T14:48:44.338Z,24.60
2018-08-14T14:50:47.895Z,25.00
2018-08-14T14:52:51.141Z,25.20
2018-08-14T14:54:55.240Z,25.50
2018-08-14T14:56:58.620Z,25.80
2018-08-14T14:59:01.808Z,25.20
2018-08-14T15:01:05.036Z,25.30
2018-08-14T15:03:08.815Z,25.30
2018-08-14T15:05:12.205Z,25.00
2018-08-14T15:07:21.999Z,24.60
2018-08-14T15:09:25.179Z,24.30
2018-08-14T15:11:28.886Z,23.70
2018-08-14T15:13:32.425Z,23.90
2018-08-14T15:15:35.596Z,24.60
2018-08-14T15:17:39.980Z,24.60
2018-08-14T15:19:43.569Z,24.70
2018-08-14T15:21:47.174Z,24.80
2018-08-14T15:23:50.753Z,25.20
2018-08-14T15:25:54.082Z,25.90
2018-08-14T15:29:06.656Z,26.10
2018-08-14T15:31:09.832Z,26.70
2018-08-14T15:33:13.356Z,27.20
2018-08-14T15:35:16.536Z,25.90
2018-08-14T15:37:19.770Z,25.60
2018-08-14T15:39:24.129Z,25.30
2018-08-14T15:41:27.800Z,24.70
2018-08-14T15:43:31.054Z,23.90
2018-08-14T15:45:34.728Z,23.60
2018-08-14T15:47:37.922Z,23.10
2018-08-14T15:49:41.208Z,23.40
2018-08-14T15:51:45.080Z,24.40
2018-08-14T15:53:51.021Z,24.30
2018-08-14T15:55:54.583Z,24.10
2018-08-14T15:57:58.502Z,23.50
2018-08-14T16:00:01.997Z,23.60
2018-08-14T16:02:05.195Z,23.30
2018-08-14T16:04:10.544Z,23.10
2018-08-14T16:06:14.109Z,22.90
2018-08-14T16:08:17.288Z,22.80
2018-08-14T16:10:21.176Z,22.80
2018-08-14T16:12:24.392Z,22.60
2018-08-14T16:14:27.796Z,22.40
2018-08-14T16:16:31.081Z,22.90
2018-08-14T16:18:34.403Z,23.00
2018-08-14T16:20:37.716Z,22.90
2018-08-14T16:22:41.265Z,22.70
2018-08-14T16:24:44.763Z,22.60
2018-08-14T16:26:48.336Z,22.90
2018-08-14T16:28:51.530Z,23.40
2018-08-14T16:30:54.958Z,23.80
2018-08-14T16:32:59.047Z,23.50
2018-08-14T16:35:02.778Z,23.10
2018-08-14T16:37:06.451Z,23.00
2018-08-14T16:39:11.695Z,22.60
2018-08-14T16:41:14.928Z,22.40
2018-08-14T16:43:18.111Z,22.30
2018-08-14T16:45:21.368Z,22.20
2018-08-14T16:47:24.921Z,22.00
2018-08-14T16:49:28.432Z,21.90
2018-08-14T16:51:32.282Z,21.80
2018-08-14T16:53:35.497Z,21.80
2018-08-14T16:55:38.696Z,21.80
2018-08-14T16:57:41.963Z,21.80
2018-08-14T16:59:45.249Z,21.70
2018-08-14T17:01:48.941Z,21.60
2018-08-14T17:03:52.658Z,21.50
2018-08-14T17:05:56.013Z,21.70
2018-08-14T17:07:59.357Z,22.30
2018-08-14T17:10:03.037Z,22.10
2018-08-14T17:12:06.581Z,21.90
2018-08-14T17:14:09.777Z,21.70
2018-08-14T17:16:13.008Z,21.50
2018-08-14T17:18:16.597Z,21.30
2018-08-14T17:20:19.132Z,21.40
2018-08-14T17:22:22.320Z,21.40
2018-08-14T17:24:25.859Z,21.30
2018-08-14T17:26:29.201Z,21.20
2018-08-14T17:28:32.771Z,21.10
2018-08-14T17:30:35.960Z,21.10
2018-08-14T17:32:39.225Z,21.00
2018-08-14T17:34:42.649Z,21.10
2018-08-14T17:36:46.076Z,20.90
2018-08-14T17:38:49.288Z,21.00
2018-08-14T17:40:52.916Z,21.00
2018-08-14T17:42:56.084Z,20.90
2018-08-14T17:44:59.380Z,20.80
2018-08-14T17:47:02.585Z,20.70
2018-08-14T17:49:06.145Z,20.80
2018-08-14T17:51:09.320Z,20.70
2018-08-14T17:53:12.572Z,20.70
2018-08-14T17:55:16.038Z,20.70
2018-08-14T17:57:19.857Z,20.70
2018-08-14T17:59:23.388Z,20.70
2018-08-14T18:01:26.884Z,20.70
2018-08-14T18:03:30.085Z,20.60
2018-08-14T18:05:33.615Z,20.50
2018-08-14T18:07:36.821Z,20.60
2018-08-14T18:09:40.637Z,20.60
2018-08-14T18:11:43.836Z,20.60
2018-08-14T18:13:47.051Z,20.60
2018-08-14T18:15:50.612Z,20.60
2018-08-14T18:17:53.810Z,20.60
2018-08-14T18:19:57.349Z,20.60
2018-08-14T18:22:00.744Z,20.60
2018-08-14T18:24:04.315Z,20.40
2018-08-14T18:26:07.957Z,20.40
2018-08-14T18:28:11.565Z,20.50
2018-08-14T18:30:16.145Z,20.40
2018-08-14T18:32:19.896Z,20.40
2018-08-14T18:34:23.409Z,20.40
2018-08-14T18:36:26.641Z,20.30
2018-08-14T18:38:29.836Z,20.10
2018-08-14T18:40:33.308Z,19.90
2018-08-14T18:42:36.516Z,19.70
2018-08-14T18:44:40.074Z,19.30
2018-08-14T18:46:43.268Z,18.80
2018-08-14T18:48:46.792Z,18.00
2018-08-14T18:50:50.017Z,17.70
2018-08-14T18:52:53.704Z,17.60
2018-08-14T18:54:57.231Z,17.70
2018-08-14T18:57:00.747Z,17.70
2018-08-14T18:59:04.508Z,17.80
2018-08-14T19:01:07.719Z,17.80
2018-08-14T19:03:10.888Z,17.80
2018-08-14T19:05:14.741Z,17.90
2018-08-14T19:07:18.152Z,17.70
2018-08-14T19:09:21.328Z,17.60
2018-08-14T19:11:24.588Z,17.60
2018-08-14T19:13:28.093Z,17.50
2018-08-14T19:15:35.374Z,17.60
2018-08-14T19:17:38.912Z,17.40
2018-08-14T19:19:42.101Z,17.50
2018-08-14T19:21:45.280Z,17.40
2018-08-14T19:23:48.489Z,17.50
2018-08-14T19:25:52.350Z,17.40
2018-08-14T19:27:55.905Z,17.50
2018-08-14T19:29:59.547Z,17.50
2018-08-14T19:32:03.127Z,17.30
2018-08-14T19:34:06.640Z,17.20
2018-08-14T19:36:09.832Z,17.10
2018-08-14T19:38:13.025Z,17.10
2018-08-14T19:40:17.794Z,17.20
2018-08-14T19:42:21.716Z,17.20
2018-08-14T19:44:25.270Z,17.20
2018-08-14T19:46:28.793Z,17.10
2018-08-14T19:48:32.932Z,17.00
2018-08-14T19:50:36.830Z,17.00
2018-08-14T19:52:40.404Z,17.00
2018-08-14T19:54:43.604Z,17.00
2018-08-14T19:56:46.816Z,17.00
2018-08-14T19:58:50.196Z,17.00
2018-08-14T20:00:53.393Z,16.90
2018-08-14T20:02:57.592Z,16.90
2018-08-14T20:05:01.337Z,16.90
2018-08-14T20:07:04.807Z,16.90
2018-08-14T20:09:09.390Z,16.90
2018-08-14T20:11:12.922Z,16.90
2018-08-14T20:13:17.153Z,16.80
2018-08-14T20:15:25.770Z,16.80
2018-08-14T20:17:29.337Z,16.80
2018-08-14T20:19:33.985Z,16.80
2018-08-14T20:21:37.496Z,16.80
2018-08-14T20:23:40.808Z,16.80
2018-08-14T20:25:44.280Z,16.70
2018-08-14T20:27:47.483Z,16.80
2018-08-14T20:29:51.089Z,16.70
2018-08-14T20:31:54.734Z,16.80
2018-08-14T20:33:58.630Z,16.80
2018-08-14T20:36:02.260Z,16.80
2018-08-14T20:38:05.443Z,16.80
2018-08-14T20:40:11.972Z,16.80
2018-08-14T20:42:15.716Z,16.70
2018-08-14T20:44:19.041Z,16.80
2018-08-14T20:46:22.376Z,16.80
2018-08-14T20:48:25.589Z,16.80
2018-08-14T20:50:28.780Z,16.90
2018-08-14T20:52:31.968Z,16.80
2018-08-14T20:54:35.168Z,16.80
2018-08-14T20:56:38.502Z,16.80
2018-08-14T20:58:42.033Z,16.80
2018-08-14T21:00:45.652Z,16.80
2018-08-14T21:02:51.093Z,16.80
2018-08-14T21:04:54.780Z,16.90
2018-08-14T21:06:58.648Z,16.90
2018-08-14T21:09:01.855Z,16.90
2018-08-14T21:11:05.069Z,16.80
2018-08-14T21:13:08.243Z,16.80
2018-08-14T21:15:13.510Z,16.80
2018-08-14T21:17:16.716Z,16.90
2018-08-14T21:19:20.277Z,16.90
2018-08-14T21:21:23.612Z,16.90
2018-08-14T21:23:27.121Z,16.90
2018-08-14T21:25:30.354Z,16.90
2018-08-14T21:27:34.369Z,16.90
2018-08-14T21:29:37.949Z,16.90
2018-08-14T21:31:41.147Z,17.00
2018-08-14T21:33:44.656Z,16.90
2018-08-14T21:35:48.252Z,16.90
2018-08-14T21:37:51.465Z,16.90
2018-08-14T21:39:54.988Z,16.90
2018-08-14T21:41:58.218Z,16.90
2018-08-14T21:44:02.073Z,17.00
2018-08-14T21:46:05.470Z,17.00
2018-08-14T21:48:09.225Z,17.00
2018-08-14T21:50:12.748Z,17.00
2018-08-14T21:52:15.968Z,17.00
2018-08-14T21:54:19.507Z,17.00
2018-08-14T21:56:23.058Z,17.00
2018-08-14T21:58:26.474Z,17.10
2018-08-14T22:00:45.740Z,17.10
2018-08-14T22:02:49.569Z,17.10
2018-08-14T22:04:52.924Z,17.10
2018-08-14T22:06:56.320Z,17.10
2018-08-14T22:08:59.509Z,17.00
2018-08-14T22:11:02.737Z,17.10
2018-08-14T22:13:05.921Z,17.10
2018-08-14T22:15:09.412Z,17.10
2018-08-14T22:17:12.824Z,17.10
2018-08-14T22:19:16.016Z,17.10
2018-08-14T22:21:19.224Z,17.10
2018-08-14T22:23:22.980Z,17.10
2018-08-14T22:25:26.180Z,17.10
2018-08-14T22:27:29.719Z,17.10
2018-08-14T22:29:33.004Z,17.10
2018-08-14T22:31:36.697Z,17.10
2018-08-14T22:33:39.892Z,17.10
2018-08-14T22:35:43.435Z,17.10
2018-08-14T22:37:46.600Z,17.10
2018-08-14T22:39:50.107Z,17.10
2018-08-14T22:41:53.659Z,17.00
2018-08-14T22:43:56.845Z,17.00
2018-08-14T22:46:00.416Z,17.00
2018-08-14T22:48:03.654Z,17.00
2018-08-14T22:50:07.993Z,17.00
2018-08-14T22:52:11.516Z,17.00
2018-08-14T22:54:14.719Z,17.00
2018-08-14T22:56:18.574Z,16.90
2018-08-14T22:58:22.119Z,16.90
2018-08-14T23:00:25.411Z,16.90
2018-08-14T23:02:28.772Z,16.80
2018-08-14T23:04:31.945Z,16.80
2018-08-14T23:06:35.420Z,16.80
2018-08-14T23:08:38.940Z,16.80
2018-08-14T23:10:42.792Z,16.80
2018-08-14T23:12:46.660Z,16.80
2018-08-14T23:14:49.827Z,16.70
2018-08-14T23:16:53.348Z,16.70
2018-08-14T23:18:56.912Z,16.80
2018-08-14T23:21:00.284Z,16.70
2018-08-14T23:23:03.488Z,16.70
2018-08-14T23:25:07.352Z,16.70
2018-08-14T23:27:10.601Z,16.70
2018-08-14T23:29:13.792Z,16.80
2018-08-14T23:31:17.325Z,16.70
2018-08-14T23:33:20.567Z,16.70
2018-08-14T23:35:24.106Z,16.80
2018-08-14T23:37:27.312Z,16.80
2018-08-14T23:39:30.605Z,16.80
2018-08-14T23:41:34.268Z,16.70
2018-08-14T23:43:37.920Z,16.70
2018-08-14T23:45:41.139Z,16.70
2018-08-14T23:47:44.406Z,16.70
2018-08-14T23:49:47.580Z,16.70
2018-08-14T23:51:51.108Z,16.70
2018-08-14T23:53:54.637Z,16.70
2018-08-14T23:55:58.171Z,16.70
2018-08-14T23:58:01.832Z,16.70
